createdAt,value
2022-10-28T00:01:25.819Z,13.92
2022-10-28T00:03:57.445Z,13.96
2022-10-28T00:06:35.459Z,13.95
2022-10-28T00:09:05.567Z,13.97
2022-10-28T00:11:35.113Z,13.95
2022-10-28T00:14:04.526Z,13.88
2022-10-28T00:16:33.747Z,13.96
2022-10-28T00:19:01.747Z,13.92
2022-10-28T00:21:30.386Z,13.82
2022-10-28T00:23:57.235Z,13.88
2022-10-28T00:26:26.124Z,13.84
2022-10-28T00:29:01.247Z,13.87
2022-10-28T00:31:29.475Z,13.84
2022-10-28T00:33:57.711Z,13.93
2022-10-28T00:36:29.796Z,13.93
2022-10-28T00:38:56.685Z,13.95
2022-10-28T00:41:35.184Z,13.99
2022-10-28T00:44:39.318Z,13.99
2022-10-28T00:47:44.561Z,14.00
2022-10-28T00:50:25.746Z,14.00
2022-10-28T00:52:57.247Z,13.95
2022-10-28T00:55:24.761Z,13.97
2022-10-28T00:57:56.629Z,13.85
2022-10-28T01:00:24.700Z,13.90
2022-10-28T01:02:51.626Z,13.86
2022-10-28T01:05:22.562Z,13.83
2022-10-28T01:08:00.575Z,13.74
2022-10-28T01:10:38.766Z,13.64
2022-10-28T01:13:36.119Z,13.57
2022-10-28T01:16:05.549Z,13.54
2022-10-28T01:19:00.815Z,13.52
2022-10-28T01:22:05.100Z,13.52
2022-10-28T01:24:53.854Z,13.38
2022-10-28T01:27:31.890Z,13.41
2022-10-28T01:30:09.487Z,13.46
2022-10-28T01:32:54.183Z,13.40
2022-10-28T01:35:53.915Z,13.12
2022-10-28T01:38:48.026Z,13.30
2022-10-28T01:41:29.282Z,13.18
2022-10-28T01:44:06.986Z,13.22
2022-10-28T01:46:46.189Z,13.08
2022-10-28T01:49:42.717Z,13.16
2022-10-28T01:52:13.530Z,13.14
2022-10-28T01:54:42.997Z,13.03
2022-10-28T01:57:13.201Z,13.15
2022-10-28T01:59:41.044Z,13.16
2022-10-28T02:02:07.520Z,13.16
2022-10-28T02:04:33.888Z,13.14
2022-10-28T02:07:00.797Z,13.10
2022-10-28T02:10:01.147Z,13.12
2022-10-28T02:12:36.996Z,13.04
2022-10-28T02:15:45.084Z,13.05
2022-10-28T02:18:43.764Z,13.03
2022-10-28T02:21:53.491Z,13.03
2022-10-28T02:24:29.776Z,12.98
2022-10-28T02:27:07.435Z,12.97
2022-10-28T02:29:45.040Z,12.92
2022-10-28T02:32:20.814Z,12.92
2022-10-28T02:34:53.320Z,12.86
2022-10-28T02:37:28.748Z,12.89
2022-10-28T02:40:01.105Z,12.89
2022-10-28T02:42:31.776Z,12.92
2022-10-28T02:45:07.356Z,12.92
2022-10-28T02:47:38.369Z,12.89
2022-10-28T02:50:10.007Z,12.77
2022-10-28T02:52:36.651Z,12.90
2022-10-28T02:55:05.650Z,12.93
2022-10-28T02:57:35.174Z,12.97
2022-10-28T03:00:07.284Z,13.01
2022-10-28T03:02:33.999Z,13.01
2022-10-28T03:05:00.419Z,12.99
2022-10-28T03:07:26.801Z,12.99
2022-10-28T03:09:53.143Z,12.99
2022-10-28T03:12:19.574Z,12.98
2022-10-28T03:14:45.961Z,12.91
2022-10-28T03:17:12.431Z,12.87
2022-10-28T03:19:39.949Z,12.87
2022-10-28T03:22:06.383Z,12.86
2022-10-28T03:24:32.757Z,12.89
2022-10-28T03:26:59.171Z,12.94
2022-10-28T03:29:25.552Z,12.98
2022-10-28T03:31:51.944Z,12.92
2022-10-28T03:34:18.376Z,13.00
2022-10-28T03:36:44.743Z,13.02
2022-10-28T03:39:11.202Z,13.03
2022-10-28T03:41:37.700Z,13.03
2022-10-28T03:44:04.180Z,12.99
2022-10-28T03:46:33.566Z,13.00
2022-10-28T03:49:02.399Z,12.99
2022-10-28T03:51:28.744Z,12.96
2022-10-28T03:53:55.191Z,12.98
2022-10-28T03:56:22.313Z,12.99
2022-10-28T03:58:50.474Z,13.04
2022-10-28T04:01:17.149Z,13.03
2022-10-28T04:03:43.705Z,13.00
2022-10-28T04:06:10.339Z,12.96
2022-10-28T04:08:37.727Z,12.95
2022-10-28T04:11:04.239Z,12.95
2022-10-28T04:13:30.610Z,12.96
2022-10-28T04:15:57.175Z,12.91
2022-10-28T04:18:23.569Z,12.93
2022-10-28T04:20:49.937Z,12.87
2022-10-28T04:23:18.416Z,12.86
2022-10-28T04:25:45.267Z,12.84
2022-10-28T04:28:11.935Z,12.83
2022-10-28T04:30:38.452Z,12.79
2022-10-28T04:33:04.867Z,12.77
2022-10-28T04:35:31.299Z,12.72
2022-10-28T04:37:57.710Z,12.71
2022-10-28T04:40:24.281Z,12.66
2022-10-28T04:42:51.033Z,12.68
2022-10-28T04:45:17.556Z,12.63
2022-10-28T04:47:43.938Z,12.61
2022-10-28T04:50:10.377Z,12.60
2022-10-28T04:52:36.848Z,12.55
2022-10-28T04:55:03.535Z,12.53
2022-10-28T04:57:29.924Z,12.51
2022-10-28T04:59:56.326Z,12.51
2022-10-28T05:02:23.466Z,12.52
2022-10-28T05:04:50.041Z,12.51
2022-10-28T05:07:18.668Z,12.52
2022-10-28T05:09:47.695Z,12.51
2022-10-28T05:12:14.122Z,12.49
2022-10-28T05:14:40.562Z,12.48
2022-10-28T05:17:08.941Z,12.39
2022-10-28T05:19:35.380Z,12.49
2022-10-28T05:22:02.193Z,12.49
2022-10-28T05:24:28.591Z,12.52
2022-10-28T05:26:54.949Z,12.49
2022-10-28T05:29:21.371Z,12.52
2022-10-28T05:31:47.773Z,12.51
2022-10-28T05:34:14.162Z,12.53
2022-10-28T05:36:40.596Z,12.52
2022-10-28T05:39:07.021Z,12.48
2022-10-28T05:41:38.501Z,12.47
2022-10-28T05:44:05.670Z,12.43
2022-10-28T05:46:32.094Z,12.37
2022-10-28T05:48:58.466Z,12.36
2022-10-28T05:51:24.938Z,12.39
2022-10-28T05:53:51.493Z,12.36
2022-10-28T05:56:18.555Z,12.33
2022-10-28T05:58:45.071Z,12.34
2022-10-28T06:01:11.514Z,12.29
2022-10-28T06:03:37.983Z,12.26
2022-10-28T06:06:04.489Z,12.26
2022-10-28T06:08:30.908Z,12.26
2022-10-28T06:10:55.784Z,12.27
2022-10-28T06:13:22.909Z,12.27
2022-10-28T06:15:53.457Z,12.28
2022-10-28T06:18:20.719Z,12.29
2022-10-28T06:20:54.500Z,12.29
2022-10-28T06:23:22.157Z,12.32
2022-10-28T06:25:49.141Z,12.32
2022-10-28T06:28:16.057Z,12.30
2022-10-28T06:30:42.567Z,12.27
2022-10-28T06:33:09.001Z,12.29
2022-10-28T06:35:35.387Z,12.25
2022-10-28T06:38:03.800Z,12.24
2022-10-28T06:40:34.014Z,12.11
2022-10-28T06:43:04.919Z,12.17
2022-10-28T06:45:33.039Z,12.16
2022-10-28T06:48:03.492Z,12.19
2022-10-28T06:50:30.646Z,12.19
2022-10-28T06:52:57.953Z,12.21
2022-10-28T06:55:25.887Z,12.23
2022-10-28T06:57:52.899Z,12.28
2022-10-28T07:00:19.872Z,12.26
2022-10-28T07:02:51.000Z,12.27
2022-10-28T07:05:17.588Z,12.34
2022-10-28T07:07:44.044Z,12.35
2022-10-28T07:10:10.445Z,12.37
2022-10-28T07:12:37.343Z,12.42
2022-10-28T07:15:04.280Z,12.47
2022-10-28T07:17:30.696Z,12.48
2022-10-28T07:19:57.071Z,12.50
2022-10-28T07:22:25.663Z,12.44
2022-10-28T07:24:52.336Z,12.52
2022-10-28T07:27:18.762Z,12.57
2022-10-28T07:29:45.195Z,12.62
2022-10-28T07:32:11.559Z,12.65
2022-10-28T07:34:37.959Z,12.74
2022-10-28T07:37:05.987Z,12.73
2022-10-28T07:39:32.515Z,12.79
2022-10-28T07:42:00.475Z,12.79
2022-10-28T07:44:26.958Z,12.82
2022-10-28T07:46:55.774Z,12.81
2022-10-28T07:49:24.866Z,12.86
2022-10-28T07:51:51.687Z,12.90
2022-10-28T07:54:18.205Z,12.91
2022-10-28T07:56:44.785Z,12.97
2022-10-28T07:59:11.275Z,13.01
2022-10-28T08:01:37.943Z,13.02
2022-10-28T08:04:04.366Z,13.04
2022-10-28T08:06:30.814Z,13.09
2022-10-28T08:08:57.451Z,13.16
2022-10-28T08:11:24.370Z,13.20
2022-10-28T08:13:52.475Z,13.22
2022-10-28T08:16:19.373Z,13.32
2022-10-28T08:18:46.001Z,13.35
2022-10-28T08:21:13.647Z,13.38
2022-10-28T08:23:41.463Z,13.46
2022-10-28T08:26:08.330Z,13.49
2022-10-28T08:28:34.771Z,13.50
2022-10-28T08:31:08.587Z,13.63
2022-10-28T08:33:37.994Z,13.76
2022-10-28T08:36:05.220Z,13.80
2022-10-28T08:38:31.595Z,13.77
2022-10-28T08:41:26.000Z,13.87
2022-10-28T08:44:17.212Z,13.97
2022-10-28T08:46:55.811Z,14.01
2022-10-28T08:49:24.112Z,14.01
2022-10-28T08:51:58.116Z,14.20
2022-10-28T08:54:31.475Z,14.25
2022-10-28T08:57:01.477Z,14.30
2022-10-28T08:59:32.486Z,14.30
2022-10-28T09:02:21.726Z,14.30
2022-10-28T09:04:54.898Z,14.37
2022-10-28T09:07:24.125Z,14.46
2022-10-28T09:09:53.608Z,14.60
2022-10-28T09:13:06.780Z,14.99
2022-10-28T09:16:00.808Z,15.32
2022-10-28T09:18:53.550Z,15.44
2022-10-28T09:21:29.088Z,15.83
2022-10-28T09:23:57.979Z,16.41
2022-10-28T09:26:36.474Z,16.76
2022-10-28T09:29:13.167Z,17.04
2022-10-28T09:31:47.491Z,17.37
2022-10-28T09:34:39.106Z,17.68
2022-10-28T09:37:37.173Z,18.19
2022-10-28T09:40:31.352Z,18.40
2022-10-28T09:43:18.090Z,18.44
2022-10-28T09:45:48.220Z,18.35
2022-10-28T09:48:26.285Z,18.43
2022-10-28T09:50:55.439Z,18.05
2022-10-28T09:53:48.505Z,17.68
2022-10-28T09:56:15.438Z,17.56
2022-10-28T09:58:49.193Z,17.41
2022-10-28T10:01:18.741Z,17.44
2022-10-28T10:03:48.912Z,17.14
2022-10-28T10:06:23.921Z,17.61
2022-10-28T10:08:50.341Z,17.87
2022-10-28T10:11:38.735Z,18.15
2022-10-28T10:14:09.434Z,18.82
2022-10-28T10:17:05.199Z,18.67
2022-10-28T10:20:10.646Z,18.11
2022-10-28T10:22:38.365Z,18.09
2022-10-28T10:25:24.457Z,17.82
2022-10-28T10:27:55.187Z,17.54
2022-10-28T10:30:24.542Z,17.28
2022-10-28T10:32:51.866Z,17.43
2022-10-28T10:35:33.495Z,17.29
2022-10-28T10:38:02.965Z,17.27
2022-10-28T10:40:31.556Z,17.07
2022-10-28T10:43:17.892Z,17.22
2022-10-28T10:46:04.350Z,17.04
2022-10-28T10:48:36.643Z,16.98
2022-10-28T10:51:21.190Z,16.76
2022-10-28T10:53:54.619Z,16.72
2022-10-28T10:56:29.935Z,16.43
2022-10-28T10:59:01.505Z,16.46
2022-10-28T11:01:33.092Z,16.43
2022-10-28T11:04:03.163Z,16.45
2022-10-28T11:06:34.256Z,16.34
2022-10-28T11:09:04.339Z,16.36
2022-10-28T11:11:41.245Z,16.34
2022-10-28T11:14:13.372Z,16.54
2022-10-28T11:16:47.394Z,16.61
2022-10-28T11:19:30.494Z,16.53
2022-10-28T11:22:28.538Z,16.61
2022-10-28T11:25:19.282Z,16.80
2022-10-28T11:28:04.426Z,16.97
2022-10-28T11:30:49.366Z,17.09
2022-10-28T11:33:35.032Z,16.78
2022-10-28T11:36:28.060Z,16.99
2022-10-28T11:39:18.424Z,17.01
2022-10-28T11:41:57.018Z,17.14
2022-10-28T11:44:50.163Z,17.07
2022-10-28T11:47:23.791Z,16.90
2022-10-28T11:50:03.685Z,17.17
2022-10-28T11:53:05.199Z,17.21
2022-10-28T11:55:39.668Z,17.18
2022-10-28T11:58:23.756Z,16.99
2022-10-28T12:01:08.879Z,17.22
2022-10-28T12:04:17.449Z,17.32
2022-10-28T12:06:46.948Z,17.24
2022-10-28T12:09:13.339Z,17.12
2022-10-28T12:14:49.005Z,17.04
2022-10-28T12:17:42.906Z,17.01
2022-10-28T12:20:52.333Z,17.04
2022-10-28T12:23:22.232Z,17.01
2022-10-28T12:25:54.802Z,16.87
2022-10-28T12:28:33.537Z,17.08
2022-10-28T12:31:02.031Z,17.10
2022-10-28T12:33:44.496Z,17.21
2022-10-28T12:36:10.830Z,17.16
2022-10-28T12:38:42.917Z,17.08
2022-10-28T12:41:35.456Z,17.18
2022-10-28T12:44:04.562Z,17.09
2022-10-28T12:46:57.452Z,17.14
2022-10-28T12:49:48.834Z,17.20
2022-10-28T12:52:30.392Z,17.18
2022-10-28T12:55:08.995Z,17.20
2022-10-28T12:57:39.419Z,17.19
2022-10-28T13:00:11.781Z,17.15
2022-10-28T13:02:43.443Z,17.19
2022-10-28T13:05:22.457Z,17.20
2022-10-28T13:08:07.413Z,17.27
2022-10-28T13:10:55.014Z,17.33
2022-10-28T13:13:42.840Z,17.38
2022-10-28T13:16:47.993Z,17.33
2022-10-28T13:19:35.877Z,17.22
2022-10-28T13:22:20.598Z,17.22
2022-10-28T13:25:01.628Z,17.37
2022-10-28T13:27:28.667Z,17.33
2022-10-28T13:29:59.287Z,17.36
2022-10-28T13:32:35.778Z,17.34
2022-10-28T13:35:26.663Z,17.38
2022-10-28T13:37:54.879Z,17.33
2022-10-28T13:40:43.699Z,17.30
2022-10-28T13:43:20.152Z,17.35
2022-10-28T13:45:53.585Z,17.31
2022-10-28T13:48:46.782Z,17.43
2022-10-28T13:51:13.144Z,17.40
2022-10-28T13:53:45.453Z,17.39
2022-10-28T13:56:19.613Z,17.38
2022-10-28T13:59:12.362Z,17.45
2022-10-28T14:01:41.888Z,17.42
2022-10-28T14:04:25.226Z,17.38
2022-10-28T14:07:03.541Z,17.36
2022-10-28T14:09:35.830Z,17.25
2022-10-28T14:12:33.626Z,17.31
2022-10-28T14:15:15.105Z,17.27
2022-10-28T14:17:50.070Z,17.34
2022-10-28T14:20:30.685Z,17.19
2022-10-28T14:22:57.756Z,17.32
2022-10-28T14:25:44.576Z,17.35
2022-10-28T14:28:33.978Z,17.37
2022-10-28T14:31:12.604Z,17.35
2022-10-28T14:34:04.586Z,17.32
2022-10-28T14:36:59.637Z,17.33
2022-10-28T14:39:40.554Z,17.28
2022-10-28T14:42:45.271Z,17.25
2022-10-28T14:45:32.716Z,17.25
2022-10-28T14:48:16.885Z,17.27
2022-10-28T14:50:47.280Z,17.26
2022-10-28T14:53:24.785Z,17.16
2022-10-28T14:55:58.921Z,17.12
2022-10-28T14:58:30.010Z,17.21
2022-10-28T15:01:02.314Z,17.22
2022-10-28T15:03:29.245Z,17.23
2022-10-28T15:05:56.337Z,17.24
2022-10-28T15:08:24.681Z,17.18
2022-10-28T15:10:51.285Z,17.22
2022-10-28T15:13:20.195Z,17.24
2022-10-28T15:15:54.461Z,17.14
2022-10-28T15:18:24.083Z,17.16
2022-10-28T15:21:07.709Z,17.17
2022-10-28T15:26:16.783Z,17.14
2022-10-28T15:28:43.472Z,17.19
2022-10-28T15:31:09.909Z,17.13
2022-10-28T15:33:42.589Z,17.10
2022-10-28T15:36:17.537Z,17.09
2022-10-28T15:38:46.358Z,17.09
2022-10-28T15:41:27.779Z,17.08
2022-10-28T15:44:03.904Z,17.01
2022-10-28T15:46:32.255Z,16.99
2022-10-28T15:49:01.241Z,17.00
2022-10-28T15:51:28.262Z,16.96
2022-10-28T15:54:09.112Z,16.95
2022-10-28T15:56:54.396Z,16.88
2022-10-28T15:59:23.293Z,16.86
2022-10-28T16:01:50.050Z,16.83
2022-10-28T16:04:22.585Z,16.82
2022-10-28T16:06:55.518Z,16.76
2022-10-28T16:09:33.489Z,16.77
2022-10-28T16:12:04.431Z,16.68
2022-10-28T16:14:37.826Z,16.70
2022-10-28T16:17:26.910Z,16.68
2022-10-28T16:19:58.466Z,16.65
2022-10-28T16:22:27.091Z,16.59
2022-10-28T16:24:54.709Z,16.59
2022-10-28T16:27:23.999Z,16.61
2022-10-28T16:29:50.943Z,16.56
2022-10-28T16:32:22.600Z,16.51
2022-10-28T16:34:49.020Z,16.41
2022-10-28T16:37:25.830Z,16.36
2022-10-28T16:39:52.699Z,16.42
2022-10-28T16:42:20.763Z,16.33
2022-10-28T16:44:48.880Z,16.27
2022-10-28T16:47:17.805Z,16.28
2022-10-28T16:49:45.231Z,16.23
2022-10-28T16:52:23.383Z,16.25
2022-10-28T16:54:51.152Z,16.19
2022-10-28T16:57:20.327Z,16.08
2022-10-28T16:59:47.268Z,16.13
2022-10-28T17:02:19.365Z,16.10
2022-10-28T17:04:45.886Z,16.07
2022-10-28T17:07:16.219Z,16.13
2022-10-28T17:09:43.056Z,16.06
2022-10-28T17:12:15.104Z,16.10
2022-10-28T17:14:41.557Z,16.01
2022-10-28T17:17:08.823Z,16.00
2022-10-28T17:19:35.266Z,16.02
2022-10-28T17:22:03.299Z,16.02
2022-10-28T17:24:32.638Z,15.94
2022-10-28T17:26:59.033Z,15.98
2022-10-28T17:29:25.654Z,15.95
2022-10-28T17:31:52.170Z,15.94
2022-10-28T17:34:18.749Z,15.91
2022-10-28T17:36:45.271Z,15.90
2022-10-28T17:39:17.027Z,15.85
2022-10-28T17:41:45.092Z,15.81
2022-10-28T17:44:11.440Z,15.80
2022-10-28T17:46:37.860Z,15.80
2022-10-28T17:49:08.472Z,15.75
2022-10-28T17:51:35.952Z,15.83
2022-10-28T17:54:02.607Z,15.81
2022-10-28T17:56:29.124Z,15.72
2022-10-28T17:58:55.640Z,15.73
2022-10-28T18:01:22.299Z,15.70
2022-10-28T18:03:50.085Z,15.65
2022-10-28T18:06:16.803Z,15.63
2022-10-28T18:08:44.190Z,15.55
2022-10-28T18:11:13.280Z,15.53
2022-10-28T18:13:41.929Z,15.33
2022-10-28T18:16:10.005Z,15.51
2022-10-28T18:18:41.095Z,15.50
2022-10-28T18:21:12.206Z,15.51
2022-10-28T18:23:38.930Z,15.55
2022-10-28T18:26:09.632Z,15.40
2022-10-28T18:28:36.985Z,15.49
2022-10-28T18:31:05.432Z,15.45
2022-10-28T18:33:32.762Z,15.40
2022-10-28T18:36:07.648Z,15.35
2022-10-28T18:38:34.196Z,15.36
2022-10-28T18:41:00.593Z,15.31
2022-10-28T18:43:27.436Z,15.35
2022-10-28T18:45:54.486Z,15.32
2022-10-28T18:48:20.951Z,15.30
2022-10-28T18:51:06.721Z,15.14
2022-10-28T18:53:41.409Z,15.25
2022-10-28T18:56:12.430Z,15.28
2022-10-28T18:58:39.259Z,15.27
2022-10-28T19:01:14.608Z,15.29
2022-10-28T19:03:42.463Z,15.25
2022-10-28T19:06:12.564Z,15.18
2022-10-28T19:08:39.662Z,15.12
2022-10-28T19:11:07.303Z,15.06
2022-10-28T19:13:36.075Z,15.02
2022-10-28T19:16:03.019Z,15.02
2022-10-28T19:18:30.242Z,14.96
2022-10-28T19:21:08.385Z,14.90
2022-10-28T19:23:34.932Z,14.91
2022-10-28T19:26:01.545Z,14.89
2022-10-28T19:28:28.077Z,14.82
2022-10-28T19:31:02.368Z,14.83
2022-10-28T19:33:30.340Z,14.66
2022-10-28T19:36:01.443Z,14.74
2022-10-28T19:38:31.013Z,14.53
2022-10-28T19:41:02.569Z,14.62
2022-10-28T19:43:29.067Z,14.58
2022-10-28T19:46:14.912Z,14.62
2022-10-28T19:48:43.115Z,14.65
2022-10-28T19:51:13.156Z,14.61
2022-10-28T19:53:39.539Z,14.65
2022-10-28T19:56:06.253Z,14.64
2022-10-28T19:58:33.147Z,14.64
2022-10-28T20:01:06.432Z,14.64
2022-10-28T20:03:35.086Z,14.34
2022-10-28T20:06:11.177Z,14.52
2022-10-28T20:08:39.354Z,14.48
2022-10-28T20:11:08.204Z,14.46
2022-10-28T20:13:36.084Z,14.33
2022-10-28T20:16:07.866Z,14.34
2022-10-28T20:18:34.516Z,14.26
2022-10-28T20:21:08.236Z,14.29
2022-10-28T20:23:35.848Z,14.27
2022-10-28T20:26:03.986Z,14.24
2022-10-28T20:28:30.614Z,14.23
2022-10-28T20:30:58.508Z,14.22
2022-10-28T20:33:25.749Z,14.14
2022-10-28T20:35:53.061Z,14.05
2022-10-28T20:38:19.885Z,14.05
2022-10-28T20:40:50.474Z,14.06
2022-10-28T20:43:20.186Z,14.11
2022-10-28T20:45:59.357Z,14.11
2022-10-28T20:48:27.653Z,14.04
2022-10-28T20:50:59.228Z,14.03
2022-10-28T20:53:27.138Z,13.96
2022-10-28T20:55:57.844Z,13.98
2022-10-28T20:58:27.755Z,14.01
2022-10-28T21:00:54.560Z,13.98
2022-10-28T21:03:22.021Z,13.94
2022-10-28T21:05:48.533Z,13.90
2022-10-28T21:08:14.935Z,13.91
2022-10-28T21:10:41.676Z,13.86
2022-10-28T21:13:08.425Z,13.85
2022-10-28T21:15:37.776Z,13.78
2022-10-28T21:18:06.287Z,13.90
2022-10-28T21:20:37.413Z,13.89
2022-10-28T21:23:04.454Z,13.93
2022-10-28T21:25:31.568Z,13.90
2022-10-28T21:27:59.301Z,13.83
2022-10-28T21:30:27.202Z,13.82
2022-10-28T21:32:53.924Z,13.90
2022-10-28T21:35:21.239Z,13.89
2022-10-28T21:37:47.631Z,13.90
2022-10-28T21:40:14.140Z,13.85
2022-10-28T21:42:40.593Z,13.88
2022-10-28T21:45:07.682Z,13.87
2022-10-28T21:47:34.646Z,13.89
2022-10-28T21:50:01.115Z,13.88
2022-10-28T21:52:27.486Z,13.85
2022-10-28T21:54:53.920Z,13.73
2022-10-28T21:57:20.303Z,13.70
2022-10-28T21:59:49.505Z,13.69
2022-10-28T22:02:16.237Z,13.68
2022-10-28T22:04:42.694Z,13.68
2022-10-28T22:07:09.112Z,13.63
2022-10-28T22:09:37.530Z,13.59
2022-10-28T22:12:04.320Z,13.60
2022-10-28T22:14:30.892Z,13.58
2022-10-28T22:16:57.353Z,13.54
2022-10-28T22:19:24.037Z,13.57
2022-10-28T22:21:50.462Z,13.57
2022-10-28T22:24:16.864Z,13.49
2022-10-28T22:26:43.332Z,13.46
2022-10-28T22:29:10.825Z,13.42
2022-10-28T22:31:37.205Z,13.37
2022-10-28T22:34:05.383Z,13.34
2022-10-28T22:36:31.892Z,13.31
2022-10-28T22:38:58.665Z,13.35
2022-10-28T22:41:30.648Z,13.33
2022-10-28T22:43:59.321Z,13.24
2022-10-28T22:46:29.286Z,13.18
2022-10-28T22:48:55.862Z,13.25
2022-10-28T22:51:23.274Z,13.23
2022-10-28T22:53:50.392Z,13.27
2022-10-28T22:56:20.336Z,13.26
2022-10-28T22:58:47.689Z,13.32
2022-10-28T23:01:18.930Z,13.41
2022-10-28T23:03:49.334Z,13.39
2022-10-28T23:06:17.978Z,13.37
2022-10-28T23:08:45.003Z,13.34
2022-10-28T23:11:13.365Z,13.32
2022-10-28T23:13:39.959Z,13.25
2022-10-28T23:16:11.634Z,13.17
2022-10-28T23:18:38.337Z,13.19
2022-10-28T23:21:19.345Z,13.18
2022-10-28T23:23:49.801Z,13.11
2022-10-28T23:26:19.573Z,13.04
2022-10-28T23:28:50.797Z,12.99
2022-10-28T23:31:17.327Z,12.93
2022-10-28T23:33:43.689Z,12.86
2022-10-28T23:36:12.763Z,12.80
2022-10-28T23:38:39.595Z,12.84
2022-10-28T23:41:08.655Z,12.78
2022-10-28T23:43:35.342Z,12.76
2022-10-28T23:46:01.913Z,12.72
2022-10-28T23:48:28.951Z,12.74
2022-10-28T23:50:56.605Z,12.76
2022-10-28T23:53:24.319Z,12.64
2022-10-28T23:55:51.884Z,12.75
2022-10-28T23:58:20.939Z,12.70
